sensor_id;sensor_type;location;lat;lon;timestamp;temperature;humidity
4505;DHT22;2265;48.794;9.520;2022-07-05T00:00:18;17.80;98.00
4505;DHT22;2265;48.794;9.520;2022-07-05T00:02:45;17.70;98.00
4505;DHT22;2265;48.794;9.520;2022-07-05T00:05:12;17.60;98.00
4505;DHT22;2265;48.794;9.520;2022-07-05T00:07:40;17.60;98.00
4505;DHT22;2265;48.794;9.520;2022-07-05T00:10:08;17.60;98.00
4505;DHT22;2265;48.794;9.520;2022-07-05T00:12:35;17.60;98.00
4505;DHT22;2265;48.794;9.520;2022-07-05T00:15:03;17.80;98.00
4505;DHT22;2265;48.794;9.520;2022-07-05T00:17:30;17.70;98.00
4505;DHT22;2265;48.794;9.520;2022-07-05T00:20:03;17.70;98.00
4505;DHT22;2265;48.794;9.520;2022-07-05T00:22:31;17.50;98.00
4505;DHT22;2265;48.794;9.520;2022-07-05T00:25:00;17.40;98.00
4505;DHT22;2265;48.794;9.520;2022-07-05T00:27:27;17.40;98.00
4505;DHT22;2265;48.794;9.520;2022-07-05T00:29:54;17.30;98.00
4505;DHT22;2265;48.794;9.520;2022-07-05T00:32:21;17.50;98.00
4505;DHT22;2265;48.794;9.520;2022-07-05T00:34:48;17.60;98.00
4505;DHT22;2265;48.794;9.520;2022-07-05T00:37:15;17.60;98.00
4505;DHT22;2265;48.794;9.520;2022-07-05T00:39:43;17.70;98.00
4505;DHT22;2265;48.794;9.520;2022-07-05T00:42:12;17.70;98.00
4505;DHT22;2265;48.794;9.520;2022-07-05T00:44:40;17.60;98.00
4505;DHT22;2265;48.794;9.520;2022-07-05T00:47:10;17.40;98.00
4505;DHT22;2265;48.794;9.520;2022-07-05T00:49:38;17.30;98.00
4505;DHT22;2265;48.794;9.520;2022-07-05T00:52:06;17.30;98.00
4505;DHT22;2265;48.794;9.520;2022-07-05T00:54:35;17.20;98.00
4505;DHT22;2265;48.794;9.520;2022-07-05T00:57:05;17.10;98.00
4505;DHT22;2265;48.794;9.520;2022-07-05T00:59:34;17.10;98.00
4505;DHT22;2265;48.794;9.520;2022-07-05T01:02:01;17.10;98.00
4505;DHT22;2265;48.794;9.520;2022-07-05T01:04:30;17.00;98.00
4505;DHT22;2265;48.794;9.520;2022-07-05T01:06:58;17.00;98.00
4505;DHT22;2265;48.794;9.520;2022-07-05T01:09:26;17.10;98.00
4505;DHT22;2265;48.794;9.520;2022-07-05T01:11:53;17.00;98.00
4505;DHT22;2265;48.794;9.520;2022-07-05T01:14:22;17.00;98.00
4505;DHT22;2265;48.794;9.520;2022-07-05T01:16:52;17.00;98.00
4505;DHT22;2265;48.794;9.520;2022-07-05T01:19:20;17.00;98.00
4505;DHT22;2265;48.794;9.520;2022-07-05T01:21:49;17.00;98.00
4505;DHT22;2265;48.794;9.520;2022-07-05T01:24:18;17.00;98.00
4505;DHT22;2265;48.794;9.520;2022-07-05T01:26:47;17.10;98.00
4505;DHT22;2265;48.794;9.520;2022-07-05T01:29:15;17.10;98.00
4505;DHT22;2265;48.794;9.520;2022-07-05T01:31:43;17.00;98.00
4505;DHT22;2265;48.794;9.520;2022-07-05T01:34:10;16.90;98.00
4505;DHT22;2265;48.794;9.520;2022-07-05T01:36:37;16.80;98.00
4505;DHT22;2265;48.794;9.520;2022-07-05T01:39:07;16.90;98.00
4505;DHT22;2265;48.794;9.520;2022-07-05T01:41:36;16.80;98.00
4505;DHT22;2265;48.794;9.520;2022-07-05T01:44:04;16.80;98.00
4505;DHT22;2265;48.794;9.520;2022-07-05T01:46:33;16.60;98.00
4505;DHT22;2265;48.794;9.520;2022-07-05T01:49:06;16.50;98.00
4505;DHT22;2265;48.794;9.520;2022-07-05T01:51:34;16.60;98.00
4505;DHT22;2265;48.794;9.520;2022-07-05T01:54:03;16.80;98.00
4505;DHT22;2265;48.794;9.520;2022-07-05T01:56:30;16.70;98.00
4505;DHT22;2265;48.794;9.520;2022-07-05T01:59:01;16.70;98.00
4505;DHT22;2265;48.794;9.520;2022-07-05T02:01:36;16.70;98.00
4505;DHT22;2265;48.794;9.520;2022-07-05T02:04:04;16.90;98.00
4505;DHT22;2265;48.794;9.520;2022-07-05T02:06:32;16.90;98.00
4505;DHT22;2265;48.794;9.520;2022-07-05T02:08:59;17.00;98.00
4505;DHT22;2265;48.794;9.520;2022-07-05T02:11:30;16.80;98.00
4505;DHT22;2265;48.794;9.520;2022-07-05T02:13:59;16.50;98.00
4505;DHT22;2265;48.794;9.520;2022-07-05T02:16:27;16.40;98.00
4505;DHT22;2265;48.794;9.520;2022-07-05T02:18:55;16.20;98.00
4505;DHT22;2265;48.794;9.520;2022-07-05T02:21:22;16.20;98.00
4505;DHT22;2265;48.794;9.520;2022-07-05T02:23:50;16.30;98.00
4505;DHT22;2265;48.794;9.520;2022-07-05T02:26:20;16.40;98.00
4505;DHT22;2265;48.794;9.520;2022-07-05T02:28:47;16.50;98.00
4505;DHT22;2265;48.794;9.520;2022-07-05T02:31:16;16.40;98.00
4505;DHT22;2265;48.794;9.520;2022-07-05T02:33:45;16.50;98.00
4505;DHT22;2265;48.794;9.520;2022-07-05T02:36:13;16.60;98.00
4505;DHT22;2265;48.794;9.520;2022-07-05T02:38:41;16.40;98.00
4505;DHT22;2265;48.794;9.520;2022-07-05T02:41:10;16.20;98.00
4505;DHT22;2265;48.794;9.520;2022-07-05T02:43:38;15.90;98.00
4505;DHT22;2265;48.794;9.520;2022-07-05T02:46:07;16.00;98.00
4505;DHT22;2265;48.794;9.520;2022-07-05T02:48:36;16.10;98.00
4505;DHT22;2265;48.794;9.520;2022-07-05T02:51:04;16.10;98.00
4505;DHT22;2265;48.794;9.520;2022-07-05T02:53:32;16.00;98.00
4505;DHT22;2265;48.794;9.520;2022-07-05T02:56:00;15.90;98.00
4505;DHT22;2265;48.794;9.520;2022-07-05T02:58:28;15.60;98.00
4505;DHT22;2265;48.794;9.520;2022-07-05T03:00:55;15.70;98.00
4505;DHT22;2265;48.794;9.520;2022-07-05T03:03:22;15.60;98.00
4505;DHT22;2265;48.794;9.520;2022-07-05T03:05:51;15.60;98.00
4505;DHT22;2265;48.794;9.520;2022-07-05T03:08:18;15.60;98.00
4505;DHT22;2265;48.794;9.520;2022-07-05T03:10:46;15.50;98.00
4505;DHT22;2265;48.794;9.520;2022-07-05T03:13:13;15.50;98.00
4505;DHT22;2265;48.794;9.520;2022-07-05T03:15:40;15.50;98.00
4505;DHT22;2265;48.794;9.520;2022-07-05T03:18:08;15.50;98.00
4505;DHT22;2265;48.794;9.520;2022-07-05T03:20:35;15.40;98.00
4505;DHT22;2265;48.794;9.520;2022-07-05T03:23:04;15.30;98.00
4505;DHT22;2265;48.794;9.520;2022-07-05T03:25:34;15.30;98.00
4505;DHT22;2265;48.794;9.520;2022-07-05T03:28:01;15.30;98.00
4505;DHT22;2265;48.794;9.520;2022-07-05T03:30:28;15.40;98.00
4505;DHT22;2265;48.794;9.520;2022-07-05T03:32:56;15.30;98.00
4505;DHT22;2265;48.794;9.520;2022-07-05T03:35:23;15.30;98.00
4505;DHT22;2265;48.794;9.520;2022-07-05T03:37:51;15.50;98.00
4505;DHT22;2265;48.794;9.520;2022-07-05T03:40:19;15.60;98.00
4505;DHT22;2265;48.794;9.520;2022-07-05T03:42:47;15.50;98.00
4505;DHT22;2265;48.794;9.520;2022-07-05T03:45:15;15.60;98.00
4505;DHT22;2265;48.794;9.520;2022-07-05T03:47:42;15.60;98.00
4505;DHT22;2265;48.794;9.520;2022-07-05T03:50:09;15.60;98.00
4505;DHT22;2265;48.794;9.520;2022-07-05T03:52:36;15.50;98.00
4505;DHT22;2265;48.794;9.520;2022-07-05T03:55:05;15.30;98.00
4505;DHT22;2265;48.794;9.520;2022-07-05T03:57:34;15.20;98.00
4505;DHT22;2265;48.794;9.520;2022-07-05T04:00:01;15.20;98.00
4505;DHT22;2265;48.794;9.520;2022-07-05T04:02:28;15.10;98.00
4505;DHT22;2265;48.794;9.520;2022-07-05T04:04:55;15.10;98.00
4505;DHT22;2265;48.794;9.520;2022-07-05T04:07:22;15.30;98.00
4505;DHT22;2265;48.794;9.520;2022-07-05T04:09:50;15.40;98.00
4505;DHT22;2265;48.794;9.520;2022-07-05T04:12:17;15.40;98.00
4505;DHT22;2265;48.794;9.520;2022-07-05T04:14:46;15.50;98.00
4505;DHT22;2265;48.794;9.520;2022-07-05T04:17:13;15.60;98.00
4505;DHT22;2265;48.794;9.520;2022-07-05T04:19:40;15.70;98.00
4505;DHT22;2265;48.794;9.520;2022-07-05T04:22:07;15.90;98.00
4505;DHT22;2265;48.794;9.520;2022-07-05T04:24:35;16.00;98.00
4505;DHT22;2265;48.794;9.520;2022-07-05T04:27:22;16.10;98.00
4505;DHT22;2265;48.794;9.520;2022-07-05T04:29:51;16.20;98.00
4505;DHT22;2265;48.794;9.520;2022-07-05T04:32:18;16.10;98.00
4505;DHT22;2265;48.794;9.520;2022-07-05T04:34:45;16.10;98.00
4505;DHT22;2265;48.794;9.520;2022-07-05T04:37:12;16.10;98.00
4505;DHT22;2265;48.794;9.520;2022-07-05T04:39:40;15.80;98.00
4505;DHT22;2265;48.794;9.520;2022-07-05T04:42:07;15.60;98.00
4505;DHT22;2265;48.794;9.520;2022-07-05T04:44:34;15.50;98.00
4505;DHT22;2265;48.794;9.520;2022-07-05T04:47:03;15.50;98.00
4505;DHT22;2265;48.794;9.520;2022-07-05T04:49:33;15.50;98.00
4505;DHT22;2265;48.794;9.520;2022-07-05T04:52:00;15.50;98.00
4505;DHT22;2265;48.794;9.520;2022-07-05T04:54:27;15.50;98.00
4505;DHT22;2265;48.794;9.520;2022-07-05T04:56:54;15.50;98.00
4505;DHT22;2265;48.794;9.520;2022-07-05T04:59:21;15.60;98.00
4505;DHT22;2265;48.794;9.520;2022-07-05T05:01:49;15.90;98.00
4505;DHT22;2265;48.794;9.520;2022-07-05T05:04:17;16.20;98.00
4505;DHT22;2265;48.794;9.520;2022-07-05T05:06:45;16.40;98.00
4505;DHT22;2265;48.794;9.520;2022-07-05T05:09:12;16.50;98.00
4505;DHT22;2265;48.794;9.520;2022-07-05T05:11:39;16.60;98.00
4505;DHT22;2265;48.794;9.520;2022-07-05T05:14:06;16.50;98.00
4505;DHT22;2265;48.794;9.520;2022-07-05T05:16:33;16.40;98.00
4505;DHT22;2265;48.794;9.520;2022-07-05T05:19:00;16.30;98.00
4505;DHT22;2265;48.794;9.520;2022-07-05T05:21:29;16.30;98.00
4505;DHT22;2265;48.794;9.520;2022-07-05T05:23:56;16.40;98.00
4505;DHT22;2265;48.794;9.520;2022-07-05T05:26:24;16.40;98.00
4505;DHT22;2265;48.794;9.520;2022-07-05T05:28:52;16.50;98.00
4505;DHT22;2265;48.794;9.520;2022-07-05T05:31:19;16.70;98.00
4505;DHT22;2265;48.794;9.520;2022-07-05T05:33:48;16.80;98.00
4505;DHT22;2265;48.794;9.520;2022-07-05T05:36:17;16.90;98.00
4505;DHT22;2265;48.794;9.520;2022-07-05T05:38:46;17.10;98.00
4505;DHT22;2265;48.794;9.520;2022-07-05T05:41:13;17.30;98.00
4505;DHT22;2265;48.794;9.520;2022-07-05T05:43:40;17.40;98.00
4505;DHT22;2265;48.794;9.520;2022-07-05T05:46:07;17.50;98.00
4505;DHT22;2265;48.794;9.520;2022-07-05T05:48:34;17.60;98.00
4505;DHT22;2265;48.794;9.520;2022-07-05T05:51:03;17.70;98.00
4505;DHT22;2265;48.794;9.520;2022-07-05T05:53:33;17.80;98.00
4505;DHT22;2265;48.794;9.520;2022-07-05T05:56:03;17.90;98.00
4505;DHT22;2265;48.794;9.520;2022-07-05T05:58:30;18.00;98.00
4505;DHT22;2265;48.794;9.520;2022-07-05T06:00:58;18.00;98.00
4505;DHT22;2265;48.794;9.520;2022-07-05T06:03:26;18.10;98.00
4505;DHT22;2265;48.794;9.520;2022-07-05T06:05:53;18.20;98.00
4505;DHT22;2265;48.794;9.520;2022-07-05T06:08:20;18.30;98.00
4505;DHT22;2265;48.794;9.520;2022-07-05T06:10:48;18.30;98.00
4505;DHT22;2265;48.794;9.520;2022-07-05T06:13:17;18.40;98.00
4505;DHT22;2265;48.794;9.520;2022-07-05T06:15:45;18.60;98.00
4505;DHT22;2265;48.794;9.520;2022-07-05T06:18:12;18.60;98.00
4505;DHT22;2265;48.794;9.520;2022-07-05T06:20:39;18.70;98.00
4505;DHT22;2265;48.794;9.520;2022-07-05T06:23:07;18.70;98.00
4505;DHT22;2265;48.794;9.520;2022-07-05T06:25:35;18.80;98.00
4505;DHT22;2265;48.794;9.520;2022-07-05T06:28:05;19.00;98.00
4505;DHT22;2265;48.794;9.520;2022-07-05T06:30:35;19.10;98.00
4505;DHT22;2265;48.794;9.520;2022-07-05T06:33:02;19.10;98.00
4505;DHT22;2265;48.794;9.520;2022-07-05T06:35:31;19.10;98.00
4505;DHT22;2265;48.794;9.520;2022-07-05T06:38:03;19.20;98.00
4505;DHT22;2265;48.794;9.520;2022-07-05T06:40:32;19.30;98.00
4505;DHT22;2265;48.794;9.520;2022-07-05T06:43:02;19.40;98.00
4505;DHT22;2265;48.794;9.520;2022-07-05T06:45:29;19.50;98.00
4505;DHT22;2265;48.794;9.520;2022-07-05T06:48:00;19.60;98.00
4505;DHT22;2265;48.794;9.520;2022-07-05T06:50:31;19.50;98.00
4505;DHT22;2265;48.794;9.520;2022-07-05T06:52:58;19.40;98.00
4505;DHT22;2265;48.794;9.520;2022-07-05T06:55:27;19.60;98.00
4505;DHT22;2265;48.794;9.520;2022-07-05T06:57:57;19.70;98.00
4505;DHT22;2265;48.794;9.520;2022-07-05T07:00:26;19.80;98.00
4505;DHT22;2265;48.794;9.520;2022-07-05T07:02:53;19.90;98.00
4505;DHT22;2265;48.794;9.520;2022-07-05T07:05:25;19.90;98.00
4505;DHT22;2265;48.794;9.520;2022-07-05T07:07:52;20.00;98.00
4505;DHT22;2265;48.794;9.520;2022-07-05T07:10:37;20.10;98.00
4505;DHT22;2265;48.794;9.520;2022-07-05T07:13:04;20.30;98.00
4505;DHT22;2265;48.794;9.520;2022-07-05T07:15:31;20.60;98.00
4505;DHT22;2265;48.794;9.520;2022-07-05T07:18:04;20.90;98.00
4505;DHT22;2265;48.794;9.520;2022-07-05T07:20:35;21.20;98.00
4505;DHT22;2265;48.794;9.520;2022-07-05T07:23:20;21.60;98.00
4505;DHT22;2265;48.794;9.520;2022-07-05T07:26:08;22.00;98.00
4505;DHT22;2265;48.794;9.520;2022-07-05T07:28:38;22.00;98.00
4505;DHT22;2265;48.794;9.520;2022-07-05T07:31:05;22.30;98.00
4505;DHT22;2265;48.794;9.520;2022-07-05T07:33:32;22.50;98.00
4505;DHT22;2265;48.794;9.520;2022-07-05T07:36:01;22.60;98.00
4505;DHT22;2265;48.794;9.520;2022-07-05T07:38:28;22.60;98.00
4505;DHT22;2265;48.794;9.520;2022-07-05T07:40:57;22.70;98.00
4505;DHT22;2265;48.794;9.520;2022-07-05T07:43:25;22.90;98.00
4505;DHT22;2265;48.794;9.520;2022-07-05T07:45:53;23.10;98.00
4505;DHT22;2265;48.794;9.520;2022-07-05T07:48:20;23.10;98.00
4505;DHT22;2265;48.794;9.520;2022-07-05T07:50:47;22.90;97.50
4505;DHT22;2265;48.794;9.520;2022-07-05T07:53:30;22.90;98.00
4505;DHT22;2265;48.794;9.520;2022-07-05T07:55:59;22.70;98.00
4505;DHT22;2265;48.794;9.520;2022-07-05T07:58:26;22.60;98.00
4505;DHT22;2265;48.794;9.520;2022-07-05T08:00:55;22.60;98.00
4505;DHT22;2265;48.794;9.520;2022-07-05T08:03:22;22.70;97.30
4505;DHT22;2265;48.794;9.520;2022-07-05T08:05:49;22.80;98.00
4505;DHT22;2265;48.794;9.520;2022-07-05T08:08:16;22.90;98.00
4505;DHT22;2265;48.794;9.520;2022-07-05T08:10:45;23.00;96.20
4505;DHT22;2265;48.794;9.520;2022-07-05T08:13:12;23.10;95.70
4505;DHT22;2265;48.794;9.520;2022-07-05T08:15:39;23.20;95.40
4505;DHT22;2265;48.794;9.520;2022-07-05T08:18:06;23.20;94.50
4505;DHT22;2265;48.794;9.520;2022-07-05T08:20:51;23.20;93.30
4505;DHT22;2265;48.794;9.520;2022-07-05T08:23:36;23.10;94.30
4505;DHT22;2265;48.794;9.520;2022-07-05T08:26:05;23.00;94.00
4505;DHT22;2265;48.794;9.520;2022-07-05T08:28:32;23.00;93.50
4505;DHT22;2265;48.794;9.520;2022-07-05T08:33:49;23.30;92.20
4505;DHT22;2265;48.794;9.520;2022-07-05T08:36:17;23.60;94.40
4505;DHT22;2265;48.794;9.520;2022-07-05T08:38:51;23.70;89.90
4505;DHT22;2265;48.794;9.520;2022-07-05T08:41:23;23.80;90.10
4505;DHT22;2265;48.794;9.520;2022-07-05T08:43:51;23.90;87.60
4505;DHT22;2265;48.794;9.520;2022-07-05T08:46:19;23.90;84.10
4505;DHT22;2265;48.794;9.520;2022-07-05T08:48:48;23.90;85.40
4505;DHT22;2265;48.794;9.520;2022-07-05T08:51:17;24.00;89.20
4505;DHT22;2265;48.794;9.520;2022-07-05T08:53:47;23.90;90.10
4505;DHT22;2265;48.794;9.520;2022-07-05T08:56:15;23.90;89.90
4505;DHT22;2265;48.794;9.520;2022-07-05T08:58:45;24.00;89.30
4505;DHT22;2265;48.794;9.520;2022-07-05T09:01:15;24.20;92.20
4505;DHT22;2265;48.794;9.520;2022-07-05T09:03:44;24.30;90.00
4505;DHT22;2265;48.794;9.520;2022-07-05T09:06:15;24.40;89.40
4505;DHT22;2265;48.794;9.520;2022-07-05T09:08:43;24.60;89.50
4505;DHT22;2265;48.794;9.520;2022-07-05T09:11:13;24.60;88.70
4505;DHT22;2265;48.794;9.520;2022-07-05T09:13:44;24.70;86.90
4505;DHT22;2265;48.794;9.520;2022-07-05T09:16:14;24.60;87.90
4505;DHT22;2265;48.794;9.520;2022-07-05T09:18:44;24.60;87.80
4505;DHT22;2265;48.794;9.520;2022-07-05T09:21:13;24.70;88.20
4505;DHT22;2265;48.794;9.520;2022-07-05T09:23:40;24.70;86.50
4505;DHT22;2265;48.794;9.520;2022-07-05T09:26:08;24.70;87.80
4505;DHT22;2265;48.794;9.520;2022-07-05T09:28:35;24.90;88.50
4505;DHT22;2265;48.794;9.520;2022-07-05T09:31:05;25.00;88.20
4505;DHT22;2265;48.794;9.520;2022-07-05T09:33:48;25.30;92.30
4505;DHT22;2265;48.794;9.520;2022-07-05T09:36:16;25.50;88.70
4505;DHT22;2265;48.794;9.520;2022-07-05T09:38:49;25.60;85.30
4505;DHT22;2265;48.794;9.520;2022-07-05T09:41:17;25.70;85.70
4505;DHT22;2265;48.794;9.520;2022-07-05T09:43:45;25.80;88.90
4505;DHT22;2265;48.794;9.520;2022-07-05T09:46:14;25.90;87.50
4505;DHT22;2265;48.794;9.520;2022-07-05T09:48:51;26.10;87.10
4505;DHT22;2265;48.794;9.520;2022-07-05T09:51:18;26.20;84.30
4505;DHT22;2265;48.794;9.520;2022-07-05T09:53:47;26.20;84.30
4505;DHT22;2265;48.794;9.520;2022-07-05T09:56:15;26.20;82.10
4505;DHT22;2265;48.794;9.520;2022-07-05T09:58:43;26.30;83.40
4505;DHT22;2265;48.794;9.520;2022-07-05T10:01:25;26.30;83.30
4505;DHT22;2265;48.794;9.520;2022-07-05T10:03:54;26.40;84.20
4505;DHT22;2265;48.794;9.520;2022-07-05T10:06:24;26.40;81.10
4505;DHT22;2265;48.794;9.520;2022-07-05T10:08:52;26.50;84.00
4505;DHT22;2265;48.794;9.520;2022-07-05T10:11:20;26.60;83.10
4505;DHT22;2265;48.794;9.520;2022-07-05T10:13:49;26.60;82.00
4505;DHT22;2265;48.794;9.520;2022-07-05T10:16:17;26.80;83.20
4505;DHT22;2265;48.794;9.520;2022-07-05T10:18:47;26.90;81.00
4505;DHT22;2265;48.794;9.520;2022-07-05T10:21:15;27.00;81.30
4505;DHT22;2265;48.794;9.520;2022-07-05T10:23:45;27.20;79.90
4505;DHT22;2265;48.794;9.520;2022-07-05T10:26:15;27.40;82.20
4505;DHT22;2265;48.794;9.520;2022-07-05T10:28:45;27.30;75.70
4505;DHT22;2265;48.794;9.520;2022-07-05T10:31:14;27.10;78.40
4505;DHT22;2265;48.794;9.520;2022-07-05T10:33:42;27.10;77.60
4505;DHT22;2265;48.794;9.520;2022-07-05T10:36:12;27.30;81.10
4505;DHT22;2265;48.794;9.520;2022-07-05T10:38:42;27.50;79.30
4505;DHT22;2265;48.794;9.520;2022-07-05T10:41:14;27.50;78.80
4505;DHT22;2265;48.794;9.520;2022-07-05T10:43:41;27.80;79.50
4505;DHT22;2265;48.794;9.520;2022-07-05T10:46:09;27.90;75.30
4505;DHT22;2265;48.794;9.520;2022-07-05T10:48:36;28.00;78.30
4505;DHT22;2265;48.794;9.520;2022-07-05T10:51:15;28.00;75.80
4505;DHT22;2265;48.794;9.520;2022-07-05T10:54:01;28.10;75.30
4505;DHT22;2265;48.794;9.520;2022-07-05T10:56:28;28.20;76.30
4505;DHT22;2265;48.794;9.520;2022-07-05T10:59:04;28.30;75.30
4505;DHT22;2265;48.794;9.520;2022-07-05T11:01:37;28.30;72.00
4505;DHT22;2265;48.794;9.520;2022-07-05T11:04:21;28.20;72.40
4505;DHT22;2265;48.794;9.520;2022-07-05T11:06:53;28.30;76.80
4505;DHT22;2265;48.794;9.520;2022-07-05T11:09:21;28.60;75.70
4505;DHT22;2265;48.794;9.520;2022-07-05T11:12:02;28.70;77.00
4505;DHT22;2265;48.794;9.520;2022-07-05T11:14:35;28.70;73.70
4505;DHT22;2265;48.794;9.520;2022-07-05T11:17:17;28.50;73.50
4505;DHT22;2265;48.794;9.520;2022-07-05T11:20:09;28.10;76.40
4505;DHT22;2265;48.794;9.520;2022-07-05T11:22:39;28.20;75.00
4505;DHT22;2265;48.794;9.520;2022-07-05T11:25:09;28.50;73.40
4505;DHT22;2265;48.794;9.520;2022-07-05T11:27:59;28.70;71.30
4505;DHT22;2265;48.794;9.520;2022-07-05T11:30:26;29.20;72.50
4505;DHT22;2265;48.794;9.520;2022-07-05T11:32:53;29.20;69.80
4505;DHT22;2265;48.794;9.520;2022-07-05T11:35:30;29.10;70.20
4505;DHT22;2265;48.794;9.520;2022-07-05T11:38:03;29.30;71.20
4505;DHT22;2265;48.794;9.520;2022-07-05T11:40:33;29.40;67.80
4505;DHT22;2265;48.794;9.520;2022-07-05T11:43:01;29.60;72.00
4505;DHT22;2265;48.794;9.520;2022-07-05T11:45:30;29.70;70.10
4505;DHT22;2265;48.794;9.520;2022-07-05T11:47:58;29.90;71.00
4505;DHT22;2265;48.794;9.520;2022-07-05T11:50:27;30.10;70.60
4505;DHT22;2265;48.794;9.520;2022-07-05T11:52:55;30.30;69.40
4505;DHT22;2265;48.794;9.520;2022-07-05T11:55:25;30.50;69.40
4505;DHT22;2265;48.794;9.520;2022-07-05T11:57:54;30.70;68.00
4505;DHT22;2265;48.794;9.520;2022-07-05T12:00:29;31.00;71.60
4505;DHT22;2265;48.794;9.520;2022-07-05T12:02:57;31.20;69.80
4505;DHT22;2265;48.794;9.520;2022-07-05T12:05:29;31.20;66.20
4505;DHT22;2265;48.794;9.520;2022-07-05T12:07:57;30.90;65.10
4505;DHT22;2265;48.794;9.520;2022-07-05T12:10:26;31.20;64.90
4505;DHT22;2265;48.794;9.520;2022-07-05T12:13:13;31.40;63.70
4505;DHT22;2265;48.794;9.520;2022-07-05T12:15:43;31.40;70.30
4505;DHT22;2265;48.794;9.520;2022-07-05T12:18:13;31.20;67.00
4505;DHT22;2265;48.794;9.520;2022-07-05T12:20:41;31.00;68.70
4505;DHT22;2265;48.794;9.520;2022-07-05T12:23:09;31.40;68.90
4505;DHT22;2265;48.794;9.520;2022-07-05T12:25:38;31.40;67.10
4505;DHT22;2265;48.794;9.520;2022-07-05T12:28:09;31.60;67.10
4505;DHT22;2265;48.794;9.520;2022-07-05T12:30:37;31.70;68.10
4505;DHT22;2265;48.794;9.520;2022-07-05T12:33:06;31.40;66.60
4505;DHT22;2265;48.794;9.520;2022-07-05T12:35:38;31.40;69.20
4505;DHT22;2265;48.794;9.520;2022-07-05T12:38:08;31.40;71.80
4505;DHT22;2265;48.794;9.520;2022-07-05T12:40:37;31.60;67.70
4505;DHT22;2265;48.794;9.520;2022-07-05T12:43:07;31.90;64.70
4505;DHT22;2265;48.794;9.520;2022-07-05T12:45:35;31.40;66.20
4505;DHT22;2265;48.794;9.520;2022-07-05T12:48:04;31.50;63.30
4505;DHT22;2265;48.794;9.520;2022-07-05T12:50:45;31.10;62.60
4505;DHT22;2265;48.794;9.520;2022-07-05T12:53:13;31.20;61.30
4505;DHT22;2265;48.794;9.520;2022-07-05T12:56:01;31.30;63.90
4505;DHT22;2265;48.794;9.520;2022-07-05T12:58:50;31.70;63.30
4505;DHT22;2265;48.794;9.520;2022-07-05T13:01:21;32.10;61.70
4505;DHT22;2265;48.794;9.520;2022-07-05T13:04:01;32.20;61.90
4505;DHT22;2265;48.794;9.520;2022-07-05T13:06:48;32.50;61.00
4505;DHT22;2265;48.794;9.520;2022-07-05T13:09:30;32.70;60.50
4505;DHT22;2265;48.794;9.520;2022-07-05T13:12:13;33.00;60.50
4505;DHT22;2265;48.794;9.520;2022-07-05T13:14:42;32.70;59.70
4505;DHT22;2265;48.794;9.520;2022-07-05T13:17:10;32.60;60.80
4505;DHT22;2265;48.794;9.520;2022-07-05T13:19:39;31.50;60.90
4505;DHT22;2265;48.794;9.520;2022-07-05T13:22:07;31.00;63.20
4505;DHT22;2265;48.794;9.520;2022-07-05T13:24:35;31.40;64.60
4505;DHT22;2265;48.794;9.520;2022-07-05T13:27:06;31.30;62.50
4505;DHT22;2265;48.794;9.520;2022-07-05T13:29:35;31.90;66.90
4505;DHT22;2265;48.794;9.520;2022-07-05T13:32:04;31.60;63.40
4505;DHT22;2265;48.794;9.520;2022-07-05T13:34:32;31.70;63.50
4505;DHT22;2265;48.794;9.520;2022-07-05T13:36:59;32.00;65.40
4505;DHT22;2265;48.794;9.520;2022-07-05T13:39:27;31.60;64.40
4505;DHT22;2265;48.794;9.520;2022-07-05T13:41:56;31.10;63.40
4505;DHT22;2265;48.794;9.520;2022-07-05T13:44:23;30.70;64.70
4505;DHT22;2265;48.794;9.520;2022-07-05T13:46:52;30.80;66.80
4505;DHT22;2265;48.794;9.520;2022-07-05T13:49:19;31.10;66.20
4505;DHT22;2265;48.794;9.520;2022-07-05T13:51:47;31.50;67.40
4505;DHT22;2265;48.794;9.520;2022-07-05T13:54:14;32.00;65.00
4505;DHT22;2265;48.794;9.520;2022-07-05T13:56:42;32.30;64.50
4505;DHT22;2265;48.794;9.520;2022-07-05T13:59:09;32.30;61.40
4505;DHT22;2265;48.794;9.520;2022-07-05T14:01:36;32.50;61.80
4505;DHT22;2265;48.794;9.520;2022-07-05T14:04:04;32.60;63.00
4505;DHT22;2265;48.794;9.520;2022-07-05T14:06:32;32.70;62.60
4505;DHT22;2265;48.794;9.520;2022-07-05T14:09:00;32.80;63.60
4505;DHT22;2265;48.794;9.520;2022-07-05T14:11:28;32.90;60.70
4505;DHT22;2265;48.794;9.520;2022-07-05T14:13:55;32.90;60.90
4505;DHT22;2265;48.794;9.520;2022-07-05T14:16:22;32.80;62.30
4505;DHT22;2265;48.794;9.520;2022-07-05T14:18:50;33.10;62.80
4505;DHT22;2265;48.794;9.520;2022-07-05T14:21:19;33.40;61.20
4505;DHT22;2265;48.794;9.520;2022-07-05T14:23:47;33.50;59.30
4505;DHT22;2265;48.794;9.520;2022-07-05T14:26:14;33.30;60.70
4505;DHT22;2265;48.794;9.520;2022-07-05T14:28:55;33.50;62.20
4505;DHT22;2265;48.794;9.520;2022-07-05T14:31:22;33.40;61.60
4505;DHT22;2265;48.794;9.520;2022-07-05T14:33:50;33.30;60.30
4505;DHT22;2265;48.794;9.520;2022-07-05T14:36:18;33.20;59.80
4505;DHT22;2265;48.794;9.520;2022-07-05T14:38:46;33.30;60.00
4505;DHT22;2265;48.794;9.520;2022-07-05T14:41:13;33.10;61.10
4505;DHT22;2265;48.794;9.520;2022-07-05T14:43:41;33.20;60.80
4505;DHT22;2265;48.794;9.520;2022-07-05T14:46:09;33.50;63.00
4505;DHT22;2265;48.794;9.520;2022-07-05T14:48:39;33.30;58.50
4505;DHT22;2265;48.794;9.520;2022-07-05T14:51:15;33.30;62.40
4505;DHT22;2265;48.794;9.520;2022-07-05T14:53:44;33.40;59.70
4505;DHT22;2265;48.794;9.520;2022-07-05T14:56:12;33.00;60.20
4505;DHT22;2265;48.794;9.520;2022-07-05T14:58:40;32.30;62.20
4505;DHT22;2265;48.794;9.520;2022-07-05T15:01:07;31.80;63.40
4505;DHT22;2265;48.794;9.520;2022-07-05T15:03:34;31.90;62.80
4505;DHT22;2265;48.794;9.520;2022-07-05T15:06:03;32.00;62.60
4505;DHT22;2265;48.794;9.520;2022-07-05T15:08:30;32.30;61.60
4505;DHT22;2265;48.794;9.520;2022-07-05T15:11:01;32.70;63.30
4505;DHT22;2265;48.794;9.520;2022-07-05T15:13:29;33.10;62.10
4505;DHT22;2265;48.794;9.520;2022-07-05T15:15:57;33.30;61.30
4505;DHT22;2265;48.794;9.520;2022-07-05T15:18:24;33.40;61.80
4505;DHT22;2265;48.794;9.520;2022-07-05T15:20:51;33.40;62.00
4505;DHT22;2265;48.794;9.520;2022-07-05T15:23:19;33.50;60.00
4505;DHT22;2265;48.794;9.520;2022-07-05T15:25:46;33.50;61.60
4505;DHT22;2265;48.794;9.520;2022-07-05T15:28:16;33.30;60.80
4505;DHT22;2265;48.794;9.520;2022-07-05T15:30:44;32.80;61.00
4505;DHT22;2265;48.794;9.520;2022-07-05T15:33:12;32.40;61.50
4505;DHT22;2265;48.794;9.520;2022-07-05T15:35:41;31.90;62.00
4505;DHT22;2265;48.794;9.520;2022-07-05T15:38:09;31.60;62.90
4505;DHT22;2265;48.794;9.520;2022-07-05T15:40:36;31.60;61.70
4505;DHT22;2265;48.794;9.520;2022-07-05T15:43:03;31.60;64.00
4505;DHT22;2265;48.794;9.520;2022-07-05T15:45:32;31.70;62.60
4505;DHT22;2265;48.794;9.520;2022-07-05T15:48:01;31.80;61.90
4505;DHT22;2265;48.794;9.520;2022-07-05T15:50:28;31.90;61.60
4505;DHT22;2265;48.794;9.520;2022-07-05T15:53:01;32.10;60.90
4505;DHT22;2265;48.794;9.520;2022-07-05T15:55:28;32.10;62.40
4505;DHT22;2265;48.794;9.520;2022-07-05T15:57:55;32.20;62.90
4505;DHT22;2265;48.794;9.520;2022-07-05T16:00:23;32.20;62.00
4505;DHT22;2265;48.794;9.520;2022-07-05T16:02:51;32.30;62.20
4505;DHT22;2265;48.794;9.520;2022-07-05T16:05:19;32.00;61.80
4505;DHT22;2265;48.794;9.520;2022-07-05T16:07:47;31.70;61.60
4505;DHT22;2265;48.794;9.520;2022-07-05T16:10:14;31.40;61.50
4505;DHT22;2265;48.794;9.520;2022-07-05T16:12:41;31.20;62.20
4505;DHT22;2265;48.794;9.520;2022-07-05T16:15:09;30.90;62.50
4505;DHT22;2265;48.794;9.520;2022-07-05T16:17:58;30.80;63.10